MFK weather

Matsu Beigan Airport
Beigan Island, Lienchiang County, Taiwan

Public forecast

Using degrees Celsius for public forecast. Weather courtesy of forecast.io.

Closest aviation weather report (METAR) to Matsu Beigan Airport

Closest report is Fuzhou Changle International Airport, 25.2 nm (46.8 km) SW. Retrieved 2019/11/13 21:00 UTC (19 minutes ago):

ZSFZ 132100Z 04009MPS CAVOK 20/11 Q1022 NOSIG

Aviation forecast (TAF) for Matsu Beigan Airport

Retrieved 2019/11/13 18:00 UTC (3 hours ago):

TAF RCMT 131700Z 1318/1412 04018KT 9000 FEW020 TEMPO 1322/1404 05023G33KT